createdAt,value
2018-07-30T00:01:08.329Z,18.70
2018-07-30T00:03:36.777Z,18.70
2018-07-30T00:06:05.223Z,18.70
2018-07-30T00:08:33.658Z,18.60
2018-07-30T00:11:02.122Z,18.60
2018-07-30T00:13:30.561Z,18.60
2018-07-30T00:15:58.988Z,18.50
2018-07-30T00:18:27.417Z,18.50
2018-07-30T00:20:55.843Z,18.50
2018-07-30T00:23:24.271Z,18.50
2018-07-30T00:25:52.677Z,18.40
2018-07-30T00:30:49.262Z,18.40
2018-07-30T00:33:17.746Z,18.20
2018-07-30T00:35:46.226Z,18.10
2018-07-30T00:38:14.665Z,18.10
2018-07-30T00:40:43.137Z,18.10
2018-07-30T00:43:11.569Z,18.10
2018-07-30T00:45:40.025Z,18.10
2018-07-30T00:48:08.479Z,18.10
2018-07-30T00:50:36.982Z,18.10
2018-07-30T00:55:33.586Z,18.10
2018-07-30T00:58:02.049Z,18.00
2018-07-30T01:00:30.527Z,18.00
2018-07-30T01:02:58.993Z,17.90
2018-07-30T01:05:27.444Z,17.80
2018-07-30T01:10:24.046Z,17.80
2018-07-30T01:12:52.498Z,17.80
2018-07-30T01:15:20.957Z,17.80
2018-07-30T01:20:17.550Z,17.70
2018-07-30T01:22:46.037Z,17.70
2018-07-30T01:25:14.470Z,17.60
2018-07-30T01:27:42.938Z,17.60
2018-07-30T01:30:11.418Z,17.60
2018-07-30T01:32:39.898Z,17.60
2018-07-30T01:35:08.346Z,17.50
2018-07-30T01:37:36.822Z,17.50
2018-07-30T01:40:05.281Z,17.40
2018-07-30T01:42:33.809Z,17.40
2018-07-30T01:45:02.255Z,17.40
2018-07-30T01:47:30.709Z,17.40
2018-07-30T01:49:59.118Z,17.40
2018-07-30T01:52:27.582Z,17.40
2018-07-30T01:54:56.045Z,17.40
2018-07-30T01:59:52.601Z,17.40
2018-07-30T02:02:21.454Z,17.40
2018-07-30T02:04:49.874Z,17.30
2018-07-30T02:07:18.429Z,17.20
2018-07-30T02:09:46.870Z,17.20
2018-07-30T02:12:15.329Z,17.20
2018-07-30T02:14:43.774Z,17.10
2018-07-30T02:17:12.265Z,17.20
2018-07-30T02:22:08.821Z,17.20
2018-07-30T02:24:37.295Z,17.10
2018-07-30T02:27:05.811Z,17.10
2018-07-30T02:29:34.234Z,17.00
2018-07-30T02:32:02.746Z,17.00
2018-07-30T02:34:31.213Z,17.00
2018-07-30T02:39:27.874Z,16.90
2018-07-30T02:44:24.489Z,16.80
2018-07-30T02:46:52.942Z,16.90
2018-07-30T02:49:21.421Z,16.80
2018-07-30T02:51:49.905Z,16.90
2018-07-30T02:54:18.417Z,16.80
2018-07-30T02:56:46.880Z,16.70
2018-07-30T02:59:15.349Z,16.70
2018-07-30T03:01:43.798Z,16.80
2018-07-30T03:04:12.286Z,16.80
2018-07-30T03:06:40.737Z,16.80
2018-07-30T03:09:10.381Z,16.70
2018-07-30T03:11:39.034Z,16.70
2018-07-30T03:16:35.717Z,16.60
2018-07-30T03:19:04.303Z,16.60
2018-07-30T03:21:32.890Z,16.60
2018-07-30T03:24:01.365Z,16.60
2018-07-30T03:26:29.805Z,16.60
2018-07-30T03:28:58.275Z,16.50
2018-07-30T03:31:26.709Z,16.50
2018-07-30T03:33:55.230Z,16.50
2018-07-30T03:36:23.682Z,16.40
2018-07-30T03:38:52.157Z,16.40
2018-07-30T03:41:20.581Z,16.40
2018-07-30T03:43:49.038Z,16.40
2018-07-30T03:46:17.466Z,16.40
2018-07-30T03:51:14.062Z,16.50
2018-07-30T03:53:42.565Z,16.40
2018-07-30T03:56:11.013Z,16.40
2018-07-30T03:58:39.450Z,16.40
2018-07-30T04:03:36.027Z,16.30
2018-07-30T04:06:04.542Z,16.30
2018-07-30T04:08:32.975Z,16.30
2018-07-30T04:11:01.426Z,16.30
2018-07-30T04:13:29.846Z,16.30
2018-07-30T04:15:58.339Z,16.40
2018-07-30T04:18:26.773Z,16.30
2018-07-30T04:23:23.357Z,16.40
2018-07-30T04:25:52.037Z,16.50
2018-07-30T04:28:20.495Z,16.50
2018-07-30T04:33:17.101Z,16.60
2018-07-30T04:35:45.545Z,16.60
2018-07-30T04:38:13.962Z,16.60
2018-07-30T04:40:42.436Z,16.70
2018-07-30T04:43:10.883Z,16.80
2018-07-30T04:45:39.324Z,16.90
2018-07-30T04:48:07.754Z,16.90
2018-07-30T04:50:36.211Z,16.90
2018-07-30T04:55:32.794Z,17.00
2018-07-30T04:58:01.210Z,17.10
2018-07-30T05:00:29.668Z,17.10
2018-07-30T05:02:58.078Z,17.30
2018-07-30T05:05:26.534Z,17.30
2018-07-30T05:07:54.934Z,17.40
2018-07-30T05:10:23.374Z,17.40
2018-07-30T05:12:51.803Z,17.50
2018-07-30T05:15:20.241Z,17.50
2018-07-30T05:17:48.666Z,17.60
2018-07-30T05:22:45.222Z,17.80
2018-07-30T05:27:41.785Z,18.00
2018-07-30T05:30:10.202Z,18.00
2018-07-30T05:32:38.745Z,18.10
2018-07-30T05:37:35.361Z,18.20
2018-07-30T05:40:03.924Z,18.20
2018-07-30T05:42:32.406Z,18.30
2018-07-30T05:45:00.881Z,18.50
2018-07-30T05:47:29.371Z,18.60
2018-07-30T05:49:57.820Z,18.60
2018-07-30T05:52:26.293Z,18.70
2018-07-30T05:54:54.724Z,18.70
2018-07-30T05:57:23.187Z,18.80
2018-07-30T05:59:51.686Z,19.00
2018-07-30T06:02:20.090Z,19.10
2018-07-30T06:07:16.631Z,19.30
2018-07-30T06:09:45.236Z,19.40
2018-07-30T06:12:13.648Z,19.50
2018-07-30T06:14:42.058Z,19.60
2018-07-30T06:17:10.524Z,19.70
2018-07-30T06:19:38.964Z,19.80
2018-07-30T06:22:07.405Z,19.90
2018-07-30T06:24:35.817Z,20.10
2018-07-30T06:27:04.231Z,20.20
2018-07-30T06:29:32.684Z,20.30
2018-07-30T06:32:01.154Z,20.50
2018-07-30T06:34:29.633Z,20.50
2018-07-30T06:36:58.085Z,20.60
2018-07-30T06:39:26.560Z,20.80
2018-07-30T06:41:55.051Z,20.90
2018-07-30T06:44:23.497Z,21.10
2018-07-30T06:46:51.955Z,21.20
2018-07-30T06:49:20.418Z,21.30
2018-07-30T06:51:48.869Z,21.50
2018-07-30T06:54:17.325Z,21.60
2018-07-30T06:56:45.809Z,21.60
2018-07-30T06:59:14.273Z,21.80
2018-07-30T07:01:42.741Z,21.90
2018-07-30T07:04:11.201Z,22.00
2018-07-30T07:06:39.647Z,22.10
2018-07-30T07:09:09.081Z,22.20
2018-07-30T07:11:38.098Z,22.40
2018-07-30T07:14:06.702Z,22.50
2018-07-30T07:16:35.240Z,22.80
2018-07-30T07:19:03.693Z,22.90
2018-07-30T07:21:32.246Z,23.10
2018-07-30T07:24:01.096Z,23.20
2018-07-30T07:26:29.570Z,23.30
2018-07-30T07:28:58.061Z,23.50
2018-07-30T07:31:26.537Z,23.70
2018-07-30T07:33:55.102Z,23.90
2018-07-30T07:38:51.693Z,24.10
2018-07-30T07:41:20.138Z,24.10
2018-07-30T07:43:48.562Z,24.20
2018-07-30T07:46:17.003Z,24.20
2018-07-30T07:48:45.421Z,24.20
2018-07-30T07:51:13.975Z,24.30
2018-07-30T07:53:42.321Z,24.60
2018-07-30T07:56:10.799Z,24.90
2018-07-30T08:01:07.382Z,25.10
2018-07-30T08:03:35.829Z,25.20
2018-07-30T08:06:04.439Z,25.40
2018-07-30T08:08:32.856Z,25.50
2018-07-30T08:11:01.374Z,25.70
2018-07-30T08:13:29.730Z,25.70
2018-07-30T08:15:58.189Z,25.80
2018-07-30T08:18:26.629Z,26.10
2018-07-30T08:20:55.125Z,26.30
2018-07-30T08:23:23.562Z,26.40
2018-07-30T08:25:52.034Z,26.50
2018-07-30T08:28:20.470Z,26.70
2018-07-30T08:30:48.906Z,26.80
2018-07-30T08:33:17.358Z,27.00
2018-07-30T08:35:45.789Z,27.20
2018-07-30T08:38:14.262Z,27.30
2018-07-30T08:43:10.879Z,27.60
2018-07-30T08:45:39.320Z,27.50
2018-07-30T08:48:07.771Z,27.60
2018-07-30T08:53:04.409Z,28.00
2018-07-30T08:55:32.861Z,28.20
2018-07-30T08:58:01.353Z,28.50
2018-07-30T09:00:29.783Z,28.70
2018-07-30T09:02:58.233Z,28.90
2018-07-30T09:05:26.691Z,28.50
2018-07-30T09:07:55.118Z,28.40
2018-07-30T09:12:51.828Z,28.80
2018-07-30T09:15:20.173Z,28.90
2018-07-30T09:17:48.615Z,29.10
2018-07-30T09:20:17.041Z,29.40
2018-07-30T09:22:45.501Z,29.60
2018-07-30T09:27:42.047Z,30.20
2018-07-30T09:32:38.693Z,30.70
2018-07-30T09:35:07.149Z,30.60
2018-07-30T09:37:35.621Z,30.30
2018-07-30T09:40:04.277Z,30.40
2018-07-30T09:42:32.713Z,30.30
2018-07-30T09:45:01.268Z,30.00
2018-07-30T09:47:29.582Z,29.80
2018-07-30T09:52:26.145Z,29.70
2018-07-30T09:57:22.686Z,30.00
2018-07-30T10:02:19.241Z,30.80
2018-07-30T10:07:16.405Z,30.90
2018-07-30T10:12:12.969Z,32.10
2018-07-30T10:14:41.403Z,32.10
2018-07-30T10:17:09.841Z,32.90
2018-07-30T10:19:38.282Z,33.70
2018-07-30T10:22:06.749Z,33.50
2018-07-30T10:24:35.186Z,32.60
2018-07-30T10:27:03.656Z,32.80
2018-07-30T10:29:32.122Z,33.20
2018-07-30T10:32:00.566Z,33.30
2018-07-30T10:34:29.010Z,33.50
2018-07-30T10:36:57.434Z,32.80
2018-07-30T10:39:25.857Z,33.10
2018-07-30T10:41:54.261Z,32.80
2018-07-30T10:44:22.689Z,33.80
2018-07-30T10:49:19.272Z,33.90
2018-07-30T10:51:47.803Z,35.50
2018-07-30T10:54:16.214Z,35.20
2018-07-30T10:56:44.653Z,35.80
2018-07-30T10:59:13.106Z,36.20
2018-07-30T11:01:41.534Z,35.30
2018-07-30T11:06:38.273Z,36.00
2018-07-30T11:09:08.528Z,36.30
2018-07-30T11:11:36.957Z,36.80
2018-07-30T11:14:05.551Z,37.80
2018-07-30T11:16:33.990Z,38.10
2018-07-30T11:19:02.594Z,38.50
2018-07-30T11:21:31.127Z,36.70
2018-07-30T11:23:59.562Z,34.50
2018-07-30T11:26:28.010Z,35.90
2018-07-30T11:28:56.417Z,37.00
2018-07-30T11:31:24.833Z,36.20
2018-07-30T11:36:21.437Z,35.40
2018-07-30T11:38:49.889Z,35.30
2018-07-30T11:41:18.351Z,35.80
2018-07-30T11:43:46.956Z,35.60
2018-07-30T11:46:15.309Z,36.90
2018-07-30T11:51:12.006Z,36.80
2018-07-30T11:53:40.489Z,37.50
2018-07-30T11:56:08.945Z,38.20
2018-07-30T11:58:37.406Z,37.60
2018-07-30T12:03:34.254Z,37.10
2018-07-30T12:06:02.746Z,35.30
2018-07-30T12:10:59.410Z,34.20
2018-07-30T12:18:24.188Z,33.40
2018-07-30T12:20:52.637Z,34.50
2018-07-30T12:23:21.117Z,35.20
2018-07-30T12:25:49.628Z,36.20
2018-07-30T12:28:18.090Z,34.80
2018-07-30T12:30:46.575Z,34.30
2018-07-30T12:33:15.142Z,33.60
2018-07-30T12:35:43.607Z,33.40
2018-07-30T12:38:12.073Z,34.30
2018-07-30T12:43:08.674Z,36.00
2018-07-30T12:45:42.522Z,35.50
2018-07-30T12:48:11.010Z,35.70
2018-07-30T12:53:07.709Z,35.40
2018-07-30T12:55:36.759Z,35.30
2018-07-30T12:58:05.857Z,34.10
2018-07-30T13:03:02.657Z,34.60
2018-07-30T13:07:59.186Z,34.80
2018-07-30T13:10:27.655Z,35.20
2018-07-30T13:12:56.129Z,35.40
2018-07-30T13:15:24.614Z,35.40
2018-07-30T13:17:53.148Z,34.90
2018-07-30T13:20:21.610Z,36.10
2018-07-30T13:22:50.062Z,35.40
2018-07-30T13:25:18.552Z,35.20
2018-07-30T13:27:47.010Z,35.50
2018-07-30T13:30:15.490Z,36.20
2018-07-30T13:32:44.021Z,35.90
2018-07-30T13:35:12.490Z,35.90
2018-07-30T13:37:40.961Z,36.10
2018-07-30T13:40:09.495Z,35.60
2018-07-30T13:42:37.987Z,36.60
2018-07-30T13:47:34.709Z,37.50
2018-07-30T13:50:03.293Z,37.90
2018-07-30T13:52:31.740Z,37.40
2018-07-30T13:55:00.358Z,37.30
2018-07-30T13:57:28.989Z,40.10
2018-07-30T13:59:57.470Z,41.60
2018-07-30T14:02:25.920Z,42.60
2018-07-30T14:07:22.566Z,40.80
2018-07-30T14:09:51.021Z,39.40
2018-07-30T14:12:19.517Z,38.00
2018-07-30T14:14:47.965Z,39.00
2018-07-30T14:17:16.433Z,41.40
2018-07-30T14:19:44.954Z,40.50
2018-07-30T14:22:13.429Z,40.80
2018-07-30T14:24:41.879Z,36.80
2018-07-30T14:27:10.365Z,34.70
2018-07-30T14:29:38.836Z,33.80
2018-07-30T14:32:07.357Z,33.60
2018-07-30T14:34:35.809Z,33.50
2018-07-30T14:37:04.575Z,33.40
2018-07-30T14:39:33.005Z,33.40
2018-07-30T14:42:01.603Z,34.20
2018-07-30T14:44:30.041Z,36.20
2018-07-30T14:46:58.524Z,37.60
2018-07-30T14:49:27.018Z,39.20
2018-07-30T14:51:55.544Z,38.00
2018-07-30T14:54:24.017Z,38.40
2018-07-30T14:59:20.618Z,37.30
2018-07-30T15:01:49.113Z,38.60
2018-07-30T15:04:17.575Z,39.70
2018-07-30T15:06:46.041Z,40.10
2018-07-30T15:09:14.809Z,38.60
2018-07-30T15:14:11.444Z,38.70
2018-07-30T15:16:39.911Z,37.90
2018-07-30T15:19:08.677Z,36.30
2018-07-30T15:21:37.285Z,34.50
2018-07-30T15:24:05.793Z,34.00
2018-07-30T15:29:02.412Z,34.30
2018-07-30T15:31:31.029Z,35.60
2018-07-30T15:33:59.562Z,36.40
2018-07-30T15:36:28.003Z,36.60
2018-07-30T15:38:56.463Z,36.90
2018-07-30T15:43:53.080Z,37.40
2018-07-30T15:46:21.516Z,37.80
2018-07-30T15:48:49.995Z,36.50
2018-07-30T15:51:18.442Z,35.70
2018-07-30T15:53:46.926Z,35.30
2018-07-30T15:56:15.380Z,35.00
2018-07-30T15:58:43.885Z,34.60
2018-07-30T16:01:12.350Z,34.00
2018-07-30T16:03:40.805Z,33.90
2018-07-30T16:06:09.241Z,33.70
2018-07-30T16:11:05.969Z,33.10
2018-07-30T16:13:34.421Z,32.90
2018-07-30T16:16:02.900Z,32.60
2018-07-30T16:18:39.049Z,32.30
2018-07-30T16:21:07.626Z,32.10
2018-07-30T16:23:36.082Z,32.10
2018-07-30T16:26:04.534Z,32.10
2018-07-30T16:28:33.000Z,32.10
2018-07-30T16:31:01.411Z,32.00
2018-07-30T16:33:29.858Z,31.70
2018-07-30T16:35:58.314Z,31.60
2018-07-30T16:38:26.742Z,31.60
2018-07-30T16:43:26.711Z,31.80
2018-07-30T16:45:55.413Z,31.80
2018-07-30T16:48:23.827Z,31.70
2018-07-30T16:50:52.274Z,31.60
2018-07-30T16:53:20.842Z,31.60
2018-07-30T16:55:49.732Z,31.40
2018-07-30T16:58:18.182Z,31.40
2018-07-30T17:03:14.887Z,31.20
2018-07-30T17:05:43.346Z,31.20
2018-07-30T17:08:11.769Z,31.00
2018-07-30T17:10:40.317Z,30.90
2018-07-30T17:13:08.865Z,30.80
2018-07-30T17:15:37.286Z,30.60
2018-07-30T17:18:05.738Z,30.40
2018-07-30T17:20:34.181Z,30.30
2018-07-30T17:23:02.688Z,30.10
2018-07-30T17:25:31.091Z,30.00
2018-07-30T17:27:59.517Z,29.90
2018-07-30T17:30:27.957Z,29.90
2018-07-30T17:32:56.457Z,30.00
2018-07-30T17:35:24.925Z,30.00
2018-07-30T17:37:53.384Z,30.00
2018-07-30T17:40:21.873Z,30.10
2018-07-30T17:42:50.384Z,30.20
2018-07-30T17:45:18.865Z,30.10
2018-07-30T17:47:47.336Z,30.00
2018-07-30T17:50:15.796Z,29.90
2018-07-30T17:52:44.256Z,29.90
2018-07-30T17:55:12.710Z,29.80
2018-07-30T18:00:10.405Z,29.70
2018-07-30T18:02:39.419Z,29.40
2018-07-30T18:05:08.353Z,29.40
2018-07-30T18:07:36.864Z,29.30
2018-07-30T18:12:33.693Z,29.00
2018-07-30T18:15:02.223Z,28.90
2018-07-30T18:17:30.739Z,28.80
2018-07-30T18:19:59.206Z,28.70
2018-07-30T18:22:27.690Z,28.60
2018-07-30T18:24:56.168Z,28.50
2018-07-30T18:27:32.901Z,28.40
2018-07-30T18:30:01.642Z,28.30
2018-07-30T18:32:30.180Z,28.10
2018-07-30T18:34:58.664Z,28.00
2018-07-30T18:37:27.197Z,27.90
2018-07-30T18:40:03.106Z,27.80
2018-07-30T18:42:31.570Z,27.60
2018-07-30T18:45:00.014Z,27.50
2018-07-30T18:47:28.497Z,27.30
2018-07-30T18:49:57.105Z,27.20
2018-07-30T18:54:53.740Z,26.90
2018-07-30T18:57:22.197Z,26.80
2018-07-30T18:59:50.765Z,26.70
2018-07-30T19:02:19.659Z,26.50
2018-07-30T19:04:48.197Z,26.40
2018-07-30T19:07:16.631Z,26.30
2018-07-30T19:09:45.153Z,26.10
2018-07-30T19:14:41.818Z,26.00
2018-07-30T19:17:10.280Z,25.90
2018-07-30T19:19:38.757Z,25.80
2018-07-30T19:24:35.409Z,25.70
2018-07-30T19:27:03.917Z,25.50
2018-07-30T19:29:32.398Z,25.50
2018-07-30T19:32:00.838Z,25.30
2018-07-30T19:34:29.325Z,25.20
2018-07-30T19:36:57.726Z,25.10
2018-07-30T19:39:26.186Z,25.00
2018-07-30T19:41:54.649Z,24.90
2018-07-30T19:44:23.147Z,24.80
2018-07-30T19:49:19.740Z,24.70
2018-07-30T19:51:48.187Z,24.60
2018-07-30T19:56:44.750Z,24.40
2018-07-30T19:59:13.198Z,24.30
2018-07-30T20:01:41.682Z,24.20
2018-07-30T20:04:10.129Z,24.10
2018-07-30T20:06:39.088Z,24.00
2018-07-30T20:09:10.630Z,23.90
2018-07-30T20:11:39.210Z,23.90
2018-07-30T20:14:07.694Z,23.80
2018-07-30T20:19:05.006Z,23.70
2018-07-30T20:21:33.503Z,23.60
2018-07-30T20:24:01.954Z,23.60
2018-07-30T20:26:30.581Z,23.50
2018-07-30T20:28:59.009Z,23.40
2018-07-30T20:31:27.804Z,23.30
2018-07-30T20:33:57.690Z,23.20
2018-07-30T20:38:54.646Z,23.00
2018-07-30T20:41:23.757Z,22.90
2018-07-30T20:43:52.722Z,22.70
2018-07-30T20:46:22.153Z,22.60
2018-07-30T20:48:50.606Z,22.60
2018-07-30T20:53:47.193Z,22.70
2018-07-30T20:56:15.636Z,22.80
2018-07-30T20:58:44.120Z,22.70
2018-07-30T21:01:12.577Z,22.70
2018-07-30T21:03:41.010Z,22.60
2018-07-30T21:06:09.434Z,22.50
2018-07-30T21:08:37.882Z,22.50
2018-07-30T21:11:06.362Z,22.40
2018-07-30T21:13:34.801Z,22.40
2018-07-30T21:16:03.229Z,22.30
2018-07-30T21:18:31.690Z,22.20
2018-07-30T21:21:00.135Z,22.20
2018-07-30T21:23:28.600Z,22.10
2018-07-30T21:25:57.053Z,22.00
2018-07-30T21:28:25.497Z,22.00
2018-07-30T21:30:53.940Z,22.00
2018-07-30T21:33:22.430Z,22.00
2018-07-30T21:35:50.877Z,21.90
2018-07-30T21:38:19.393Z,21.90
2018-07-30T21:40:47.858Z,21.80
2018-07-30T21:43:16.330Z,21.80
2018-07-30T21:45:44.778Z,21.80
2018-07-30T21:48:13.244Z,21.60
2018-07-30T21:50:41.722Z,21.60
2018-07-30T21:53:10.165Z,21.50
2018-07-30T21:55:38.659Z,21.40
2018-07-30T22:00:35.261Z,21.40
2018-07-30T22:03:03.756Z,21.40
2018-07-30T22:05:32.295Z,21.40
2018-07-30T22:08:00.726Z,21.40
2018-07-30T22:10:29.220Z,21.40
2018-07-30T22:12:57.709Z,21.30
2018-07-30T22:15:26.206Z,21.30
2018-07-30T22:17:54.662Z,21.20
2018-07-30T22:20:23.309Z,21.10
2018-07-30T22:22:51.719Z,20.90
2018-07-30T22:25:20.200Z,20.90
2018-07-30T22:27:48.647Z,20.90
2018-07-30T22:30:17.117Z,20.90
2018-07-30T22:32:45.572Z,20.90
2018-07-30T22:35:14.050Z,21.00
2018-07-30T22:37:42.478Z,20.90
2018-07-30T22:40:10.938Z,20.90
2018-07-30T22:42:39.352Z,20.90
2018-07-30T22:45:07.831Z,20.70
2018-07-30T22:47:36.270Z,20.70
2018-07-30T22:50:04.721Z,20.60
2018-07-30T22:52:33.168Z,20.60
2018-07-30T22:55:01.622Z,20.60
2018-07-30T22:57:30.058Z,20.50
2018-07-30T23:02:26.617Z,20.50
2018-07-30T23:04:55.051Z,20.50
2018-07-30T23:07:23.592Z,20.40
2018-07-30T23:09:52.018Z,20.40
2018-07-30T23:12:20.485Z,20.30
2018-07-30T23:14:48.901Z,20.30
2018-07-30T23:17:17.334Z,20.20
2018-07-30T23:19:45.778Z,20.20
2018-07-30T23:22:14.212Z,20.20
2018-07-30T23:24:42.638Z,20.20
2018-07-30T23:27:11.166Z,20.20
2018-07-30T23:29:39.615Z,20.10
2018-07-30T23:32:08.126Z,20.00
2018-07-30T23:34:36.551Z,20.00
2018-07-30T23:37:05.146Z,19.90
2018-07-30T23:39:33.526Z,19.80
2018-07-30T23:42:01.996Z,19.90
2018-07-30T23:44:30.409Z,19.80
2018-07-30T23:46:58.863Z,19.80
2018-07-30T23:49:27.266Z,19.70
2018-07-30T23:51:55.733Z,19.60
2018-07-30T23:54:24.173Z,19.70
2018-07-30T23:56:52.589Z,19.80
2018-07-30T23:59:21.024Z,19.80
